createdAt,value
2018-04-16T00:00:24.657Z,47.57
2018-04-16T00:06:29.091Z,48.10
2018-04-16T00:12:33.525Z,44.80
2018-04-16T00:18:37.891Z,40.10
2018-04-16T00:24:42.781Z,42.33
2018-04-16T00:30:47.990Z,46.17
2018-04-16T00:36:57.822Z,47.43
2018-04-16T00:43:07.660Z,60.83
2018-04-16T00:49:18.319Z,48.97
2018-04-16T00:55:28.150Z,61.00
2018-04-16T01:01:38.066Z,61.33
2018-04-16T01:07:48.572Z,59.33
2018-04-16T01:13:58.482Z,67.23
2018-04-16T01:20:08.431Z,59.03
2018-04-16T01:26:18.499Z,64.83
2018-04-16T01:32:28.335Z,66.70
2018-04-16T01:38:38.338Z,74.37
2018-04-16T01:44:48.226Z,70.17
2018-04-16T01:50:58.176Z,65.00
2018-04-16T01:57:08.168Z,78.60
2018-04-16T02:03:18.155Z,83.23
2018-04-16T02:09:28.873Z,73.77
2018-04-16T02:15:38.699Z,74.97
2018-04-16T02:21:48.858Z,66.80
2018-04-16T02:27:58.819Z,74.53
2018-04-16T02:40:52.408Z,66.10
2018-04-16T03:04:11.587Z,20.73
2018-04-16T03:10:21.404Z,47.13
2018-04-16T03:16:31.291Z,62.97
2018-04-16T03:22:41.771Z,57.40
2018-04-16T03:28:52.427Z,62.33
2018-04-16T03:35:02.274Z,75.60
2018-04-16T03:41:13.601Z,68.53
2018-04-16T03:47:23.582Z,72.07
2018-04-16T03:53:30.325Z,75.07
2018-04-16T03:59:34.700Z,61.20
2018-04-16T04:05:39.130Z,73.13
2018-04-16T04:11:43.681Z,71.30
2018-04-16T04:17:48.095Z,51.40
2018-04-16T04:24:10.430Z,42.20
2018-04-16T04:30:41.641Z,33.27
2018-04-16T04:36:46.109Z,47.47
2018-04-16T04:42:50.499Z,55.20
2018-04-16T04:48:54.929Z,47.40
2018-04-16T04:54:59.302Z,47.37
2018-04-16T05:01:03.678Z,45.50
2018-04-16T05:07:08.051Z,38.67
2018-04-16T05:13:12.516Z,36.40
2018-04-16T05:19:16.899Z,40.20
2018-04-16T05:25:21.378Z,35.43
2018-04-16T05:31:25.755Z,17.40
2018-04-16T05:37:30.116Z,17.43
2018-04-16T05:43:34.482Z,19.80
2018-04-16T05:49:39.651Z,12.90
2018-04-16T05:55:44.796Z,11.50
2018-04-16T06:01:49.162Z,13.93
2018-04-16T06:07:53.648Z,20.23
2018-04-16T06:13:58.001Z,28.07
2018-04-16T06:20:02.399Z,19.43
2018-04-16T06:26:06.784Z,26.90
2018-04-16T06:32:12.011Z,23.47
2018-04-16T06:38:16.376Z,23.13
2018-04-16T06:44:20.746Z,28.10
2018-04-16T06:50:25.919Z,31.70
2018-04-16T06:56:30.294Z,25.70
2018-04-16T07:02:34.642Z,26.07
2018-04-16T07:08:39.038Z,39.87
2018-04-16T07:14:43.527Z,36.93
2018-04-16T07:20:47.903Z,42.10
2018-04-16T07:26:52.346Z,43.60
2018-04-16T07:32:56.719Z,57.30
2018-04-16T07:39:01.306Z,67.70
2018-04-16T07:45:05.667Z,64.00
2018-04-16T07:51:10.047Z,56.70
2018-04-16T07:57:14.434Z,51.17
2018-04-16T08:03:18.785Z,52.07
2018-04-16T08:09:23.976Z,38.80
2018-04-16T08:15:29.106Z,39.70
2018-04-16T08:21:33.462Z,41.27
2018-04-16T08:27:37.820Z,34.23
2018-04-16T08:33:42.954Z,34.43
2018-04-16T08:39:47.330Z,32.50
2018-04-16T08:45:51.710Z,31.57
2018-04-16T08:51:56.083Z,21.83
2018-04-16T08:58:00.473Z,20.27
2018-04-16T09:04:04.857Z,21.27
2018-04-16T09:10:09.266Z,20.37
2018-04-16T09:16:13.645Z,21.33
2018-04-16T09:22:18.847Z,14.20
2018-04-16T09:28:23.210Z,17.03
2018-04-16T09:34:28.654Z,14.93
2018-04-16T09:40:32.993Z,9.30
2018-04-16T09:46:37.364Z,9.40
2018-04-16T09:52:42.592Z,13.77
2018-04-16T09:58:46.959Z,18.20
2018-04-16T10:04:51.339Z,22.40
2018-04-16T10:10:56.019Z,21.03
2018-04-16T10:17:01.151Z,30.70
2018-04-16T10:23:06.316Z,25.40
2018-04-16T10:29:10.707Z,25.70
2018-04-16T10:35:15.075Z,24.23
2018-04-16T10:41:19.446Z,23.57
2018-04-16T10:47:23.840Z,26.17
2018-04-16T10:53:28.216Z,24.33
2018-04-16T10:59:32.588Z,24.77
2018-04-16T11:05:36.970Z,22.23
2018-04-16T11:11:41.355Z,24.53
2018-04-16T11:17:46.580Z,38.10
2018-04-16T11:23:50.946Z,25.43
2018-04-16T11:29:55.404Z,32.10
2018-04-16T11:36:00.529Z,23.80
2018-04-16T11:42:04.918Z,23.33
2018-04-16T11:48:09.430Z,23.27
2018-04-16T11:54:13.967Z,24.30
2018-04-16T12:00:18.338Z,22.43
2018-04-16T12:06:22.694Z,25.10
2018-04-16T12:12:27.058Z,26.73
2018-04-16T12:18:32.195Z,23.30
2018-04-16T12:24:36.549Z,25.83
2018-04-16T12:30:40.969Z,23.47
2018-04-16T12:36:45.375Z,27.37
2018-04-16T12:42:49.734Z,19.83
2018-04-16T12:49:00.923Z,22.33
2018-04-16T12:55:10.918Z,23.23
2018-04-16T13:01:26.666Z,21.93
2018-04-16T13:07:36.815Z,18.87
2018-04-16T13:13:41.301Z,19.40
2018-04-16T13:19:51.838Z,17.40
2018-04-16T13:26:02.834Z,19.73
2018-04-16T13:32:13.167Z,19.53
2018-04-16T13:38:28.952Z,19.60
2018-04-16T13:44:39.193Z,19.17
2018-04-16T13:50:49.320Z,26.23
2018-04-16T13:56:53.674Z,20.13
2018-04-16T14:02:58.198Z,25.80
2018-04-16T14:09:09.290Z,21.70
2018-04-16T14:15:19.498Z,20.77
2018-04-16T14:21:23.880Z,19.40
2018-04-16T14:27:40.270Z,17.90
2018-04-16T14:33:50.655Z,13.93
2018-04-16T14:40:06.979Z,13.00
2018-04-16T14:46:17.339Z,14.80
2018-04-16T14:52:21.733Z,13.60
2018-04-16T14:58:26.141Z,16.33
2018-04-16T15:04:36.278Z,12.10
2018-04-16T15:10:46.583Z,15.47
2018-04-16T15:16:50.987Z,15.40
2018-04-16T15:22:55.483Z,10.60
2018-04-16T15:29:00.233Z,13.20
2018-04-16T15:35:04.723Z,12.97
2018-04-16T15:41:09.172Z,12.00
2018-04-16T15:47:13.847Z,11.57
2018-04-16T15:53:18.208Z,11.37
2018-04-16T15:59:22.594Z,9.77
2018-04-16T16:05:27.082Z,10.70
2018-04-16T16:11:31.468Z,12.70
2018-04-16T16:17:35.863Z,10.77
2018-04-16T16:23:40.372Z,12.37
2018-04-16T16:29:45.568Z,9.93
2018-04-16T16:35:50.777Z,16.20
2018-04-16T16:41:55.146Z,9.00
2018-04-16T16:47:59.519Z,11.50
2018-04-16T16:54:04.760Z,13.00
2018-04-16T17:00:09.150Z,18.97
2018-04-16T17:06:13.590Z,14.37
2018-04-16T17:12:18.004Z,17.53
2018-04-16T17:18:22.550Z,16.43
2018-04-16T17:24:26.992Z,15.33
2018-04-16T17:30:32.168Z,16.60
2018-04-16T17:36:37.322Z,16.77
2018-04-16T17:42:41.977Z,16.57
2018-04-16T17:48:46.418Z,15.87
2018-04-16T17:54:50.839Z,17.03
2018-04-16T18:00:55.342Z,15.07
2018-04-16T18:06:59.839Z,18.43
2018-04-16T18:13:04.205Z,16.00
2018-04-16T18:19:08.601Z,20.27
2018-04-16T18:25:13.451Z,20.33
2018-04-16T18:31:17.849Z,17.47
2018-04-16T18:37:22.303Z,13.50
2018-04-16T18:43:26.771Z,14.67
2018-04-16T18:49:31.283Z,13.80
2018-04-16T18:55:35.792Z,11.40
2018-04-16T19:01:40.638Z,12.03
2018-04-16T19:07:45.111Z,18.60
2018-04-16T19:13:49.477Z,13.93
2018-04-16T19:19:54.107Z,13.30
2018-04-16T19:25:59.324Z,10.10
2018-04-16T19:32:03.686Z,10.70
2018-04-16T19:38:08.086Z,13.40
2018-04-16T19:44:12.567Z,9.83
2018-04-16T19:50:17.056Z,8.67
2018-04-16T19:56:27.023Z,9.13
2018-04-16T20:02:36.988Z,15.50
2018-04-16T20:08:41.578Z,15.00
2018-04-16T20:14:46.006Z,10.67
2018-04-16T20:20:50.423Z,9.30
2018-04-16T20:26:54.836Z,12.97
2018-04-16T20:32:59.234Z,12.70
2018-04-16T20:39:03.638Z,12.07
2018-04-16T20:45:08.796Z,16.43
2018-04-16T20:51:13.534Z,16.30
2018-04-16T20:57:17.927Z,11.63
2018-04-16T21:03:22.425Z,14.23
2018-04-16T21:09:26.824Z,11.10
2018-04-16T21:15:31.299Z,17.07
2018-04-16T21:21:35.689Z,18.17
2018-04-16T21:27:40.226Z,14.83
2018-04-16T21:33:44.618Z,16.70
2018-04-16T21:39:49.006Z,11.23
2018-04-16T21:45:53.389Z,13.47
2018-04-16T21:51:57.770Z,20.23
2018-04-16T21:58:02.222Z,14.53
2018-04-16T22:04:06.677Z,13.37
2018-04-16T22:10:11.179Z,21.13
2018-04-16T22:16:15.547Z,17.80
2018-04-16T22:22:19.942Z,20.73
2018-04-16T22:28:24.421Z,11.37
2018-04-16T22:34:28.830Z,21.77
2018-04-16T22:40:34.841Z,21.57
2018-04-16T22:46:39.982Z,15.40
2018-04-16T22:52:44.576Z,16.77
2018-04-16T22:58:48.974Z,15.80
2018-04-16T23:04:54.965Z,20.47
2018-04-16T23:10:59.339Z,17.97
2018-04-16T23:17:03.807Z,15.30
2018-04-16T23:23:08.181Z,15.27
2018-04-16T23:29:12.734Z,16.20
2018-04-16T23:35:17.140Z,17.13
2018-04-16T23:41:21.528Z,22.17
2018-04-16T23:47:25.937Z,26.20
2018-04-16T23:53:31.076Z,27.67
2018-04-16T23:59:35.462Z,31.27
